Terminal Aerodrome Forecast
Issued by NWS

Home | Current Version | Previous Version | Text Only | Print | Product List | Glossary On
Versions: 1 2 3 4 5 6 7 8 9 10 11 12 13 14 15 16 17
000
FTUS43 KIND 262320
TAFBMG
TAF
KBMG 262320Z 2700/2724 19007KT P6SM BKN110
     FM271400 16005KT P6SM OVC025
     FM271900 17006KT P6SM OVC015
     FM272300 14005KT P6SM BKN035
      AMD LTD TO CLD VIS AND WIND 2702/2714=

USA.gov is the U.S. government's official web portal to all federal, state and local government web resources and services.